Time;durP1;ratioP1;P1;durP2;ratioP2;P2;SDS_P1;SDS_P2;PMS_P1;PMS_P2;Temp;Humidity;BMP_temperature;BMP_pressure;BME280_temperature;BME280_humidity;BME280_pressure;Samples;Min_cycle;Max_cycle;Signal;HPM_P1;HPM_P2
2024/01/25 00:00:48;;;;;;;14.23;3.70;;;8.00;99.90;;;;;;5028598;28;20231;-48
2024/01/25 00:03:16;;;;;;;9.60;3.37;;;8.00;99.90;;;;;;5045482;28;20501;-46
2024/01/25 00:05:45;;;;;;;7.63;3.25;;;8.00;99.90;;;;;;5046958;28;20463;-47
2024/01/25 00:08:13;;;;;;;6.43;3.10;;;8.00;99.90;;;;;;5045342;28;20196;-48
2024/01/25 00:10:43;;;;;;;7.00;2.50;;;8.00;99.90;;;;;;5045205;28;20565;-47
2024/01/25 00:13:11;;;;;;;10.70;2.88;;;8.00;99.90;;;;;;5029815;28;20263;-48
2024/01/25 00:15:40;;;;;;;9.50;3.63;;;8.00;99.90;;;;;;5047020;28;20582;-46
2024/01/25 00:18:08;;;;;;;8.70;2.90;;;8.00;99.90;;;;;;5048502;28;20201;-48
2024/01/25 00:20:37;;;;;;;13.52;4.38;;;8.00;99.90;;;;;;5040894;28;20439;-47
2024/01/25 00:23:05;;;;;;;7.93;2.88;;;8.00;99.90;;;;;;5041696;28;20211;-50
2024/01/25 00:25:34;;;;;;;10.13;2.65;;;8.00;99.90;;;;;;5045031;28;20277;-48
2024/01/25 00:28:04;;;;;;;5.27;2.83;;;8.00;99.90;;;;;;5045295;28;20196;-48
2024/01/25 00:30:32;;;;;;;8.23;3.20;;;8.00;99.90;;;;;;5041446;28;20478;-48
2024/01/25 00:33:01;;;;;;;8.85;3.45;;;8.00;99.90;;;;;;5040885;28;20215;-46
2024/01/25 00:35:30;;;;;;;10.52;3.47;;;8.00;99.90;;;;;;5045265;28;20268;-47
2024/01/25 00:38:00;;;;;;;8.38;3.60;;;8.00;99.90;;;;;;5037296;28;20225;-47
2024/01/25 00:40:28;;;;;;;7.13;3.20;;;8.00;99.90;;;;;;5046490;28;20204;-47
2024/01/25 00:42:57;;;;;;;10.00;2.50;;;8.00;99.90;;;;;;5027366;28;20311;-47
2024/01/25 00:45:27;;;;;;;7.70;3.23;;;8.00;99.90;;;;;;5044906;28;20478;-47
2024/01/25 00:47:56;;;;;;;9.18;3.63;;;8.00;99.90;;;;;;5046455;28;20482;-46
2024/01/25 00:50:25;;;;;;;6.03;2.30;;;8.00;99.90;;;;;;5047319;28;20243;-52
2024/01/25 00:52:54;;;;;;;10.52;3.22;;;8.00;99.90;;;;;;5043608;28;20711;-47
2024/01/25 00:55:23;;;;;;;8.50;3.40;;;8.00;99.90;;;;;;5045110;28;20269;-47
2024/01/25 00:57:52;;;;;;;8.40;3.50;;;8.00;99.90;;;;;;5045386;28;20459;-47
2024/01/25 01:00:22;;;;;;;7.40;3.17;;;8.00;99.90;;;;;;5028443;28;21038;-47
2024/01/25 01:02:54;;;;;;;10.27;3.75;;;8.00;99.90;;;;;;5045056;28;20563;-46
2024/01/25 01:05:22;;;;;;;7.93;3.27;;;8.00;99.90;;;;;;5045536;28;20810;-48
2024/01/25 01:07:52;;;;;;;9.68;3.30;;;8.00;99.90;;;;;;5041571;28;20462;-48
2024/01/25 01:10:20;;;;;;;16.02;4.00;;;7.90;99.90;;;;;;5040360;28;20217;-46
2024/01/25 01:12:48;;;;;;;7.17;3.00;;;7.90;99.90;;;;;;5047607;28;20233;-47
2024/01/25 01:15:17;;;;;;;11.95;4.07;;;8.00;99.90;;;;;;5041439;28;20461;-48
2024/01/25 01:17:45;;;;;;;11.07;3.75;;;8.00;99.90;;;;;;5045343;28;20225;-47
2024/01/25 01:20:15;;;;;;;10.82;3.75;;;8.00;99.90;;;;;;5039156;28;20275;-45
2024/01/25 01:22:44;;;;;;;10.77;3.50;;;8.00;99.90;;;;;;5041857;28;20278;-46
2024/01/25 01:25:12;;;;;;;8.00;2.75;;;8.00;99.90;;;;;;5044941;28;20196;-46
2024/01/25 01:27:40;;;;;;;7.65;2.92;;;8.00;99.90;;;;;;5046314;28;20282;-47
2024/01/25 01:30:09;;;;;;;11.13;3.80;;;8.00;99.90;;;;;;5043778;28;20717;-47
2024/01/25 01:32:38;;;;;;;8.80;3.63;;;8.00;99.90;;;;;;5044502;28;20843;-47
2024/01/25 01:35:07;;;;;;;7.33;3.00;;;8.00;99.90;;;;;;5025972;28;20522;-48
2024/01/25 01:37:37;;;;;;;8.27;3.22;;;8.00;99.90;;;;;;5039240;28;20475;-46
2024/01/25 01:40:06;;;;;;;10.73;3.63;;;8.00;99.90;;;;;;5036766;28;20195;-49
2024/01/25 01:42:35;;;;;;;7.38;2.85;;;8.00;99.90;;;;;;5026362;28;20502;-46
2024/01/25 01:45:03;;;;;;;9.05;3.35;;;8.00;99.90;;;;;;5042117;28;20207;-47
2024/01/25 01:47:32;;;;;;;6.63;2.40;;;8.00;99.90;;;;;;5042385;28;20209;-47
2024/01/25 01:50:02;;;;;;;10.07;3.40;;;8.00;99.90;;;;;;5046363;28;20423;-48
2024/01/25 01:52:31;;;;;;;9.35;3.20;;;8.00;99.90;;;;;;5039753;28;21059;-46
2024/01/25 01:55:01;;;;;;;9.80;3.50;;;8.00;99.90;;;;;;5040616;28;20247;-47
2024/01/25 01:57:30;;;;;;;6.40;3.00;;;8.00;99.90;;;;;;5050331;28;20459;-47
2024/01/25 02:00:03;;;;;;;16.07;3.47;;;8.00;99.90;;;;;;5050773;28;20427;-51
2024/01/25 02:02:38;;;;;;;7.55;3.70;;;8.00;99.90;;;;;;5043120;28;20462;-48
2024/01/25 02:05:07;;;;;;;6.97;3.60;;;7.90;99.90;;;;;;5049662;28;20216;-47
2024/01/25 02:07:36;;;;;;;9.77;3.03;;;8.00;99.90;;;;;;5046209;28;20498;-47
2024/01/25 02:10:07;;;;;;;13.25;4.47;;;7.90;99.90;;;;;;5049866;28;20184;-47
2024/01/25 02:12:35;;;;;;;6.07;3.00;;;8.00;99.90;;;;;;5044307;28;20266;-47
2024/01/25 02:15:03;;;;;;;6.15;2.40;;;7.90;99.90;;;;;;5048860;28;20217;-47
2024/01/25 02:17:32;;;;;;;8.88;3.67;;;8.00;99.90;;;;;;5048633;28;20208;-47
2024/01/25 02:20:00;;;;;;;7.03;3.30;;;7.90;99.90;;;;;;5049428;28;20196;-46
2024/01/25 02:22:30;;;;;;;8.20;3.67;;;7.90;99.90;;;;;;5041787;28;20467;-46
2024/01/25 02:24:58;;;;;;;7.15;3.17;;;7.90;99.90;;;;;;5048853;28;20201;-48
2024/01/25 02:27:27;;;;;;;6.20;3.15;;;7.90;99.90;;;;;;5048483;28;20229;-47
2024/01/25 02:29:55;;;;;;;9.52;3.40;;;7.90;99.90;;;;;;5049327;28;20284;-50
2024/01/25 02:32:23;;;;;;;10.60;3.55;;;7.90;99.90;;;;;;5049005;28;20228;-48
2024/01/25 02:34:52;;;;;;;7.00;3.13;;;7.90;99.90;;;;;;5050738;28;20259;-45
2024/01/25 02:37:20;;;;;;;13.70;3.63;;;7.90;99.90;;;;;;5032720;28;20455;-47
2024/01/25 02:39:50;;;;;;;5.95;2.85;;;7.90;99.90;;;;;;5032099;28;20447;-48
2024/01/25 02:42:19;;;;;;;9.23;3.73;;;7.90;99.90;;;;;;5048244;28;20578;-47
2024/01/25 02:44:47;;;;;;;6.03;3.03;;;7.90;99.90;;;;;;5048353;28;20435;-47
2024/01/25 02:47:15;;;;;;;8.47;3.00;;;7.90;99.90;;;;;;5047817;28;20474;-47
2024/01/25 02:49:43;;;;;;;9.27;3.80;;;7.90;99.90;;;;;;5050957;28;20427;-48
2024/01/25 02:52:12;;;;;;;11.30;3.60;;;7.90;99.90;;;;;;5050303;28;20223;-48
2024/01/25 02:54:40;;;;;;;8.57;2.92;;;7.90;99.90;;;;;;5049194;28;20534;-48
2024/01/25 02:57:10;;;;;;;5.97;2.90;;;7.90;99.90;;;;;;5050356;28;20220;-48
2024/01/25 02:59:39;;;;;;;8.18;2.95;;;7.90;99.90;;;;;;5049805;28;20204;-48
2024/01/25 03:02:07;;;;;;;8.37;3.47;;;7.90;99.90;;;;;;5047457;28;20220;-47
2024/01/25 03:04:35;;;;;;;9.02;3.00;;;7.90;99.90;;;;;;5032859;28;20435;-46
2024/01/25 03:07:04;;;;;;;9.50;2.83;;;7.90;99.90;;;;;;5048105;28;20287;-47
2024/01/25 03:09:33;;;;;;;8.30;2.70;;;7.90;99.90;;;;;;5041926;28;20195;-48
2024/01/25 03:12:01;;;;;;;9.55;3.35;;;7.90;99.90;;;;;;5049260;28;20712;-47
2024/01/25 03:14:31;;;;;;;12.70;3.00;;;7.90;99.90;;;;;;5049738;28;20570;-48
2024/01/25 03:16:59;;;;;;;15.48;3.63;;;7.90;99.90;;;;;;5048633;28;20608;-48
2024/01/25 03:19:29;;;;;;;5.07;2.65;;;7.90;99.90;;;;;;5049278;28;20657;-47
2024/01/25 03:21:58;;;;;;;8.38;3.50;;;7.90;99.90;;;;;;5048111;28;20604;-49
2024/01/25 03:24:26;;;;;;;9.23;3.20;;;7.90;99.90;;;;;;5041955;28;20524;-48
2024/01/25 03:26:55;;;;;;;9.38;2.92;;;7.90;99.90;;;;;;5048974;28;20300;-48
2024/01/25 03:29:23;;;;;;;12.23;3.60;;;7.90;99.90;;;;;;5047783;28;20203;-48
2024/01/25 03:31:52;;;;;;;7.93;3.50;;;7.90;99.90;;;;;;5046389;28;20555;-49
2024/01/25 03:34:21;;;;;;;9.32;3.03;;;7.90;99.90;;;;;;5048641;28;20438;-47
2024/01/25 03:36:50;;;;;;;5.70;3.13;;;7.90;99.90;;;;;;5047937;28;20217;-48
2024/01/25 03:39:18;;;;;;;9.20;2.92;;;7.90;99.90;;;;;;5038549;28;20196;-47
2024/01/25 03:41:47;;;;;;;7.28;2.83;;;7.90;99.90;;;;;;5040061;28;20226;-46
2024/01/25 03:44:15;;;;;;;10.93;3.47;;;7.90;99.90;;;;;;5039922;28;20243;-48
2024/01/25 03:46:43;;;;;;;8.52;2.90;;;7.90;99.90;;;;;;5046880;28;20300;-47
2024/01/25 03:49:13;;;;;;;8.20;2.95;;;7.90;99.90;;;;;;5047669;28;20681;-46
2024/01/25 03:51:41;;;;;;;9.33;3.00;;;7.90;99.90;;;;;;5029229;28;20644;-49
2024/01/25 03:54:09;;;;;;;9.30;2.50;;;7.90;99.90;;;;;;5046485;28;20443;-47
2024/01/25 03:56:38;;;;;;;7.82;2.67;;;7.90;99.90;;;;;;5048503;28;20467;-48
2024/01/25 03:59:10;;;;;;;6.00;4.18;;;7.90;99.90;;;;;;5048594;28;20204;-48
2024/01/25 04:01:42;;;;;;;11.18;4.07;;;7.90;99.90;;;;;;5047659;28;20620;-48
2024/01/25 04:04:15;;;;;;;11.60;3.77;;;7.90;99.90;;;;;;5046239;28;20203;-48
2024/01/25 04:06:45;;;;;;;6.93;3.35;;;7.90;99.90;;;;;;5048408;28;21011;-48
2024/01/25 04:09:15;;;;;;;10.15;2.95;;;7.90;99.90;;;;;;5044114;28;20253;-47
2024/01/25 04:11:43;;;;;;;8.05;3.60;;;7.90;99.90;;;;;;5043272;28;20346;-47
2024/01/25 04:14:11;;;;;;;8.07;3.20;;;7.90;99.90;;;;;;5039841;28;20651;-49
2024/01/25 04:16:40;;;;;;;4.85;2.60;;;7.90;99.90;;;;;;5047679;28;20244;-48
2024/01/25 04:19:08;;;;;;;6.45;2.60;;;7.90;99.90;;;;;;5047624;28;20681;-47
2024/01/25 04:21:38;;;;;;;11.55;4.10;;;7.90;99.90;;;;;;5047339;28;20227;-48
2024/01/25 04:24:07;;;;;;;7.03;2.53;;;7.90;99.90;;;;;;5039545;28;20197;-47
2024/01/25 04:26:36;;;;;;;9.60;2.63;;;7.90;99.90;;;;;;5047810;28;20467;-48
2024/01/25 04:29:04;;;;;;;6.95;2.90;;;7.90;99.90;;;;;;5045534;28;20243;-48
2024/01/25 04:31:32;;;;;;;7.65;3.05;;;7.90;99.90;;;;;;5036323;28;20224;-46
2024/01/25 04:34:00;;;;;;;6.20;2.80;;;7.90;99.90;;;;;;5040378;28;20197;-48
2024/01/25 04:36:28;;;;;;;12.45;3.13;;;7.90;99.90;;;;;;5045099;28;20225;-47
2024/01/25 04:38:58;;;;;;;6.18;3.03;;;7.90;99.90;;;;;;5045206;28;20193;-47
2024/01/25 04:41:26;;;;;;;10.00;3.28;;;7.90;99.90;;;;;;5045944;28;20251;-48
2024/01/25 04:43:54;;;;;;;8.45;2.75;;;7.90;99.90;;;;;;5040489;28;20260;-48
2024/01/25 04:46:22;;;;;;;9.40;3.57;;;7.90;99.90;;;;;;5043491;28;20588;-47
2024/01/25 04:48:51;;;;;;;9.57;3.95;;;7.90;99.90;;;;;;5048274;28;20467;-46
2024/01/25 04:51:20;;;;;;;7.78;2.90;;;7.90;99.90;;;;;;5044892;28;20261;-47
2024/01/25 04:53:48;;;;;;;9.57;3.47;;;7.90;99.90;;;;;;5043120;28;20252;-48
2024/01/25 04:56:18;;;;;;;8.02;3.90;;;7.90;99.90;;;;;;5045956;28;20224;-47
2024/01/25 04:58:47;;;;;;;6.45;2.40;;;7.90;99.90;;;;;;5048627;28;20202;-47
2024/01/25 05:01:15;;;;;;;10.15;3.50;;;7.90;99.90;;;;;;5044440;28;20274;-48
2024/01/25 05:03:43;;;;;;;7.25;4.15;;;7.90;99.90;;;;;;5044143;28;20259;-48
2024/01/25 05:06:11;;;;;;;5.07;2.80;;;7.90;99.90;;;;;;5042141;28;20720;-48
2024/01/25 05:08:43;;;;;;;11.32;3.40;;;7.90;99.90;;;;;;5047850;28;20203;-46
2024/01/25 05:11:11;;;;;;;8.48;3.15;;;7.90;99.90;;;;;;5045535;28;20241;-48
2024/01/25 05:13:40;;;;;;;8.70;2.83;;;7.90;99.90;;;;;;5042554;28;20203;-47
2024/01/25 05:16:08;;;;;;;7.80;2.83;;;7.90;99.90;;;;;;5041481;28;20249;-48
2024/01/25 05:18:37;;;;;;;11.75;2.88;;;7.90;99.90;;;;;;5047381;28;20227;-48
2024/01/25 05:21:06;;;;;;;7.80;2.70;;;7.80;99.90;;;;;;5040835;28;20274;-48
2024/01/25 05:23:34;;;;;;;6.25;3.05;;;7.80;99.90;;;;;;5033012;28;20247;-47
2024/01/25 05:26:02;;;;;;;9.27;3.10;;;7.80;99.90;;;;;;5042340;28;20235;-47
2024/01/25 05:28:30;;;;;;;9.82;2.70;;;7.80;99.90;;;;;;5027432;28;20601;-47
2024/01/25 05:31:00;;;;;;;9.57;3.10;;;7.80;99.90;;;;;;5044181;28;20999;-47
2024/01/25 05:33:32;;;;;;;5.47;2.83;;;7.80;99.90;;;;;;5040830;28;20451;-47
2024/01/25 05:36:01;;;;;;;6.35;2.75;;;7.80;99.90;;;;;;5048013;28;20588;-47
2024/01/25 05:38:30;;;;;;;5.65;3.10;;;7.80;99.90;;;;;;5050933;28;20216;-48
2024/01/25 05:40:58;;;;;;;6.35;2.70;;;7.80;99.90;;;;;;5043672;28;20309;-48
2024/01/25 05:43:26;;;;;;;10.23;2.50;;;7.80;99.90;;;;;;5043341;28;20223;-46
2024/01/25 05:45:55;;;;;;;5.25;2.90;;;7.80;99.90;;;;;;5046785;28;20207;-48
2024/01/25 05:48:24;;;;;;;4.45;2.28;;;7.80;99.90;;;;;;5052329;28;20715;-48
2024/01/25 05:50:53;;;;;;;7.13;3.28;;;7.80;99.90;;;;;;5048263;28;20567;-48
2024/01/25 05:53:21;;;;;;;7.35;3.08;;;7.80;99.90;;;;;;5049890;28;20635;-49
2024/01/25 05:55:49;;;;;;;6.57;2.88;;;7.80;99.90;;;;;;5038688;28;20282;-47
2024/01/25 05:58:18;;;;;;;5.10;2.83;;;7.80;99.90;;;;;;5047761;28;20195;-48
2024/01/25 06:00:46;;;;;;;7.40;2.67;;;7.80;99.90;;;;;;5045003;28;20195;-47
2024/01/25 06:03:15;;;;;;;7.25;2.83;;;7.80;99.90;;;;;;5048794;28;20671;-46
2024/01/25 06:05:45;;;;;;;7.75;3.03;;;7.80;99.90;;;;;;5049462;28;20208;-45
2024/01/25 06:08:13;;;;;;;5.97;2.30;;;7.80;99.90;;;;;;5044137;28;20209;-46
2024/01/25 06:10:42;;;;;;;5.07;2.45;;;7.80;99.90;;;;;;5032030;28;20275;-45
2024/01/25 06:13:11;;;;;;;10.90;3.15;;;7.80;99.90;;;;;;5050024;28;20691;-45
2024/01/25 06:15:40;;;;;;;5.67;2.67;;;7.80;99.90;;;;;;5047421;28;20199;-45
2024/01/25 06:18:08;;;;;;;6.20;2.37;;;7.80;99.90;;;;;;5049348;28;20519;-46
2024/01/25 06:20:37;;;;;;;7.38;2.75;;;7.80;99.90;;;;;;5050687;28;20447;-46
2024/01/25 06:23:06;;;;;;;6.60;2.97;;;7.80;99.90;;;;;;5049447;28;20637;-46
2024/01/25 06:25:36;;;;;;;4.93;3.10;;;7.80;99.90;;;;;;5047639;28;20815;-45
2024/01/25 06:28:04;;;;;;;6.47;2.47;;;7.80;99.90;;;;;;5049669;28;20220;-46
2024/01/25 06:30:32;;;;;;;8.30;2.45;;;7.80;99.90;;;;;;5038579;28;20193;-46
2024/01/25 06:33:01;;;;;;;5.43;2.30;;;7.80;99.90;;;;;;5050180;28;20232;-45
2024/01/25 06:35:29;;;;;;;5.50;2.40;;;7.80;99.90;;;;;;5038896;28;20323;-46
2024/01/25 06:37:57;;;;;;;5.47;2.33;;;7.80;99.90;;;;;;5049510;28;20224;-45
2024/01/25 06:40:26;;;;;;;7.43;2.78;;;7.80;99.90;;;;;;5048740;28;20195;-47
2024/01/25 06:42:56;;;;;;;10.25;2.95;;;7.80;99.90;;;;;;5049055;28;20307;-46
2024/01/25 06:45:24;;;;;;;7.05;2.53;;;7.80;99.90;;;;;;5043585;28;20189;-45
2024/01/25 06:47:52;;;;;;;3.97;2.72;;;7.80;99.90;;;;;;5049613;28;20318;-46
2024/01/25 06:50:21;;;;;;;6.07;2.80;;;7.70;99.90;;;;;;5050479;28;20781;-46
2024/01/25 06:52:49;;;;;;;6.97;2.65;;;7.80;99.90;;;;;;5048731;28;20235;-46
2024/01/25 06:55:18;;;;;;;6.57;3.50;;;7.70;99.90;;;;;;5042933;28;20208;-46
2024/01/25 06:57:47;;;;;;;6.30;2.20;;;7.80;99.90;;;;;;5042463;28;20233;-46
2024/01/25 07:00:16;;;;;;;8.38;2.70;;;7.70;99.90;;;;;;5047629;28;20197;-46
2024/01/25 07:02:45;;;;;;;7.47;2.60;;;7.70;99.90;;;;;;5049137;28;20221;-45
2024/01/25 07:05:15;;;;;;;3.38;2.30;;;7.70;99.90;;;;;;5045142;28;20188;-46
2024/01/25 07:07:44;;;;;;;6.40;3.22;;;7.70;99.90;;;;;;5049906;28;20224;-45
2024/01/25 07:10:12;;;;;;;5.53;3.28;;;7.80;99.90;;;;;;5049465;28;20246;-46
2024/01/25 07:12:40;;;;;;;8.18;3.97;;;7.70;99.90;;;;;;5048667;28;20307;-45
2024/01/25 07:15:10;;;;;;;8.32;4.45;;;7.70;99.90;;;;;;5043510;28;20231;-46
2024/01/25 07:17:39;;;;;;;4.45;2.85;;;7.70;99.90;;;;;;5049181;28;20559;-46
2024/01/25 07:20:08;;;;;;;5.53;2.45;;;7.70;99.90;;;;;;5049554;28;20197;-46
2024/01/25 07:22:36;;;;;;;4.00;2.10;;;7.70;99.90;;;;;;5041210;28;20286;-45
2024/01/25 07:25:05;;;;;;;6.47;2.78;;;7.70;99.90;;;;;;5044993;28;20207;-45
2024/01/25 07:27:34;;;;;;;5.57;2.88;;;7.70;99.90;;;;;;5041219;28;20697;-45
2024/01/25 07:30:02;;;;;;;7.30;2.70;;;7.70;99.90;;;;;;5040248;28;20217;-46
2024/01/25 07:32:35;;;;;;;5.63;2.95;;;7.70;99.90;;;;;;5023347;28;20347;-45
2024/01/25 07:35:04;;;;;;;5.93;3.20;;;7.70;99.90;;;;;;5030448;28;20207;-45
2024/01/25 07:37:33;;;;;;;6.78;2.80;;;7.70;99.90;;;;;;5024287;28;20307;-46
2024/01/25 07:40:02;;;;;;;7.35;2.33;;;7.70;99.90;;;;;;5048856;28;20211;-45
2024/01/25 07:42:31;;;;;;;7.43;3.10;;;7.70;99.90;;;;;;5038066;28;20244;-46
2024/01/25 07:45:00;;;;;;;8.05;3.03;;;7.70;99.90;;;;;;5043663;28;20254;-44
2024/01/25 07:47:28;;;;;;;5.15;2.58;;;7.70;99.90;;;;;;5031480;28;20681;-46
2024/01/25 07:49:58;;;;;;;7.78;2.08;;;7.70;99.90;;;;;;5050066;28;20267;-46
2024/01/25 07:52:26;;;;;;;6.22;2.83;;;7.70;99.90;;;;;;5044769;28;20313;-45
2024/01/25 07:54:55;;;;;;;4.28;2.35;;;7.70;99.90;;;;;;5038351;28;20526;-47
2024/01/25 07:57:23;;;;;;;6.15;2.85;;;7.70;99.90;;;;;;5045363;28;20253;-46
2024/01/25 07:59:51;;;;;;;4.70;2.83;;;7.70;99.90;;;;;;5049198;28;20202;-46
2024/01/25 08:02:20;;;;;;;6.05;2.22;;;7.70;99.90;;;;;;5045739;28;20216;-46
2024/01/25 08:04:49;;;;;;;7.25;2.70;;;7.70;99.90;;;;;;5044137;28;20216;-46
2024/01/25 08:07:19;;;;;;;6.30;2.83;;;7.70;99.90;;;;;;5048652;28;20287;-46
2024/01/25 08:09:51;;;;;;;7.05;2.92;;;7.70;99.90;;;;;;5049360;28;20737;-46
2024/01/25 08:12:20;;;;;;;7.57;3.13;;;7.70;99.90;;;;;;5047170;28;20251;-45
2024/01/25 08:14:48;;;;;;;6.38;3.05;;;7.70;99.90;;;;;;5048699;28;20241;-46
2024/01/25 08:17:16;;;;;;;5.43;2.92;;;7.70;99.90;;;;;;5046555;28;20301;-45
2024/01/25 08:19:46;;;;;;;7.38;3.20;;;7.70;99.90;;;;;;5048017;28;20200;-46
2024/01/25 08:22:20;;;;;;;10.13;3.70;;;7.70;99.90;;;;;;5045609;28;20234;-46
2024/01/25 08:24:50;;;;;;;5.45;1.85;;;7.70;99.90;;;;;;5038608;28;20275;-45
2024/01/25 08:27:19;;;;;;;5.25;2.33;;;7.70;99.90;;;;;;5048486;28;20682;-46
2024/01/25 08:29:47;;;;;;;7.65;2.65;;;7.70;99.90;;;;;;5048137;28;20277;-46
2024/01/25 08:32:15;;;;;;;5.30;1.98;;;7.70;99.90;;;;;;5046239;28;20235;-45
2024/01/25 08:34:43;;;;;;;5.65;2.28;;;7.70;99.90;;;;;;5047503;28;20676;-46
2024/01/25 08:37:11;;;;;;;7.05;3.20;;;7.70;99.90;;;;;;5046677;28;20274;-45
2024/01/25 08:39:43;;;;;;;7.90;3.15;;;7.70;99.90;;;;;;5017598;28;20204;-45
2024/01/25 08:42:11;;;;;;;6.43;2.50;;;7.70;99.90;;;;;;5046395;28;20800;-46
2024/01/25 08:44:44;;;;;;;5.50;3.38;;;7.70;99.90;;;;;;5043508;28;20319;-49
2024/01/25 08:47:12;;;;;;;4.20;2.90;;;7.70;99.90;;;;;;5036729;28;20228;-48
2024/01/25 08:49:40;;;;;;;4.50;2.72;;;7.70;99.90;;;;;;5047572;28;20205;-48
2024/01/25 08:52:09;;;;;;;8.25;3.58;;;7.70;99.90;;;;;;5040492;28;20234;-46
2024/01/25 08:54:37;;;;;;;3.90;2.08;;;7.70;99.90;;;;;;5046720;28;20205;-47
2024/01/25 08:57:07;;;;;;;7.50;3.45;;;7.70;99.90;;;;;;5029486;28;20291;-47
2024/01/25 08:59:37;;;;;;;9.95;3.63;;;7.70;99.90;;;;;;5040567;28;20188;-45
2024/01/25 09:02:06;;;;;;;14.80;5.25;;;7.70;99.90;;;;;;5037941;28;20773;-47
2024/01/25 09:04:35;;;;;;;24.17;10.18;;;7.60;99.90;;;;;;5047019;28;20650;-48
2024/01/25 09:07:04;;;;;;;25.65;10.07;;;7.60;99.90;;;;;;5038450;28;20441;-47
2024/01/25 09:09:32;;;;;;;21.52;8.15;;;7.60;99.90;;;;;;5043175;28;20202;-47
2024/01/25 09:12:00;;;;;;;27.73;10.98;;;7.70;99.90;;;;;;5047449;28;20220;-47
2024/01/25 09:14:32;;;;;;;18.58;10.80;;;7.70;99.90;;;;;;5048469;28;20189;-48
2024/01/25 09:17:00;;;;;;;18.48;8.57;;;7.80;99.90;;;;;;5044012;28;20238;-47
2024/01/25 09:19:28;;;;;;;17.10;7.20;;;7.80;99.90;;;;;;5048278;28;20429;-48
2024/01/25 09:21:58;;;;;;;22.17;9.52;;;7.80;99.90;;;;;;5047234;28;20228;-48
2024/01/25 09:24:26;;;;;;;16.40;7.88;;;7.80;99.90;;;;;;5048071;28;20192;-47
2024/01/25 09:26:55;;;;;;;16.30;7.75;;;7.80;99.90;;;;;;5052291;28;20240;-46
2024/01/25 09:29:23;;;;;;;17.63;6.97;;;7.80;99.90;;;;;;5051587;28;20739;-47
2024/01/25 09:31:52;;;;;;;15.00;7.65;;;7.70;99.90;;;;;;5050201;28;20218;-47
2024/01/25 09:34:21;;;;;;;13.15;7.28;;;7.70;99.90;;;;;;5048890;28;20244;-47
2024/01/25 09:36:49;;;;;;;16.95;7.30;;;7.80;99.90;;;;;;5045942;28;20221;-48
2024/01/25 09:39:18;;;;;;;19.77;7.15;;;7.70;99.90;;;;;;5046947;28;20199;-47
2024/01/25 09:41:47;;;;;;;14.38;6.50;;;7.70;99.90;;;;;;5051494;28;20227;-47
2024/01/25 09:44:17;;;;;;;16.38;5.97;;;7.70;99.90;;;;;;5049833;28;20189;-47
2024/01/25 09:46:46;;;;;;;17.10;6.50;;;7.70;99.90;;;;;;5032506;28;20663;-46
2024/01/25 09:49:16;;;;;;;12.10;5.75;;;7.70;99.90;;;;;;5049144;28;20289;-47
2024/01/25 09:51:45;;;;;;;15.50;6.20;;;7.70;99.90;;;;;;5050408;28;20247;-46
2024/01/25 09:54:14;;;;;;;11.43;7.32;;;7.70;99.90;;;;;;5044821;28;20189;-46
2024/01/25 09:56:43;;;;;;;13.13;6.30;;;7.70;99.90;;;;;;5044877;28;20315;-48
2024/01/25 09:59:11;;;;;;;12.98;7.35;;;7.70;99.90;;;;;;5049110;28;20203;-46
2024/01/25 10:01:39;;;;;;;13.38;6.20;;;7.70;99.90;;;;;;5036326;28;20228;-48
2024/01/25 10:04:08;;;;;;;12.05;5.20;;;7.70;99.90;;;;;;5031005;28;20289;-49
2024/01/25 10:06:37;;;;;;;14.25;5.80;;;7.70;99.90;;;;;;5040891;28;20320;-46
2024/01/25 10:09:09;;;;;;;15.30;6.13;;;7.70;99.90;;;;;;5039464;28;20195;-48
2024/01/25 10:11:37;;;;;;;11.80;5.30;;;7.70;99.90;;;;;;5039809;28;20311;-47
2024/01/25 10:14:12;;;;;;;9.57;5.60;;;7.70;99.90;;;;;;5038725;28;20189;-46
2024/01/25 10:16:40;;;;;;;16.48;6.07;;;7.70;99.90;;;;;;5044610;28;20220;-47
2024/01/25 10:19:09;;;;;;;11.65;4.60;;;7.70;99.90;;;;;;5042561;28;20194;-48
2024/01/25 10:21:42;;;;;;;8.77;4.65;;;7.70;99.90;;;;;;5038531;28;20225;-48
2024/01/25 10:24:11;;;;;;;18.48;5.40;;;7.70;99.90;;;;;;5019761;28;20830;-48
2024/01/25 10:26:42;;;;;;;14.10;6.25;;;7.70;99.90;;;;;;5029021;28;20225;-47
2024/01/25 10:29:11;;;;;;;10.88;5.18;;;7.70;99.90;;;;;;5034100;28;20946;-48
2024/01/25 10:31:40;;;;;;;13.38;5.00;;;7.70;99.90;;;;;;5041411;28;20250;-49
2024/01/25 10:34:12;;;;;;;13.05;4.45;;;7.70;99.90;;;;;;5039677;28;20296;-48
2024/01/25 10:36:42;;;;;;;9.73;4.37;;;7.70;99.90;;;;;;5039384;28;20274;-48
2024/01/25 10:39:12;;;;;;;11.32;5.70;;;7.70;99.90;;;;;;5036847;28;20436;-48
2024/01/25 10:41:41;;;;;;;9.13;4.57;;;7.70;99.90;;;;;;5037998;28;20237;-48
2024/01/25 10:44:09;;;;;;;12.40;5.13;;;7.70;99.90;;;;;;5041358;28;20678;-50
2024/01/25 10:46:39;;;;;;;8.00;4.40;;;7.70;99.90;;;;;;5043856;28;20229;-49
2024/01/25 10:49:09;;;;;;;10.00;4.30;;;7.70;99.90;;;;;;5043209;28;20231;-48
2024/01/25 10:51:38;;;;;;;7.85;4.70;;;7.70;99.90;;;;;;5039031;28;20655;-46
2024/01/25 10:54:08;;;;;;;7.28;3.72;;;7.70;99.90;;;;;;5037115;28;20227;-47
2024/01/25 10:56:37;;;;;;;9.68;4.28;;;7.70;99.90;;;;;;5039243;28;20267;-47
2024/01/25 10:59:06;;;;;;;9.07;4.32;;;7.70;99.90;;;;;;5037841;28;20201;-47
2024/01/25 11:01:35;;;;;;;7.05;4.00;;;7.70;99.90;;;;;;5037385;28;20315;-48
2024/01/25 11:04:04;;;;;;;6.53;4.53;;;7.70;99.90;;;;;;5044432;28;20254;-49
2024/01/25 11:06:33;;;;;;;11.48;4.07;;;7.70;99.90;;;;;;5040858;28;20739;-48
2024/01/25 11:09:09;;;;;;;7.00;3.90;;;7.70;99.90;;;;;;5036885;28;20198;-48
2024/01/25 11:11:37;;;;;;;8.38;3.83;;;7.70;99.90;;;;;;5042268;28;20323;-47
2024/01/25 11:14:13;;;;;;;8.25;3.75;;;7.70;99.90;;;;;;5041602;28;20658;-50
2024/01/25 11:16:44;;;;;;;10.52;4.53;;;7.70;99.90;;;;;;5031596;28;20231;-48
2024/01/25 11:19:18;;;;;;;13.13;5.23;;;7.70;99.90;;;;;;5030481;28;20271;-48
2024/01/25 11:21:47;;;;;;;6.45;3.85;;;7.70;99.90;;;;;;5036992;28;20464;-48
2024/01/25 11:24:21;;;;;;;10.88;3.88;;;7.70;99.90;;;;;;5033152;28;20205;-46
2024/01/25 11:26:50;;;;;;;8.48;4.07;;;7.70;99.90;;;;;;5029310;28;20529;-47
2024/01/25 11:29:20;;;;;;;7.43;4.32;;;7.70;99.90;;;;;;5032395;28;20202;-48
2024/01/25 11:31:49;;;;;;;10.32;4.13;;;7.70;99.90;;;;;;5019351;28;20335;-48
2024/01/25 11:34:18;;;;;;;6.55;4.20;;;7.70;99.90;;;;;;5033850;28;20217;-46
2024/01/25 11:36:47;;;;;;;8.02;4.05;;;7.70;99.90;;;;;;5044110;28;20219;-47
2024/01/25 11:39:18;;;;;;;7.88;3.90;;;7.70;99.90;;;;;;5043945;28;20197;-48
2024/01/25 11:41:47;;;;;;;9.93;4.03;;;7.70;99.90;;;;;;5043786;28;20304;-46
2024/01/25 11:44:15;;;;;;;5.50;3.22;;;7.70;99.90;;;;;;5046494;28;20222;-47
2024/01/25 11:46:44;;;;;;;5.68;3.05;;;7.70;99.90;;;;;;5033621;28;20223;-48
2024/01/25 11:49:12;;;;;;;8.95;3.75;;;7.70;99.90;;;;;;5034497;28;20496;-47
2024/01/25 11:51:49;;;;;;;8.00;3.70;;;7.80;99.90;;;;;;5076970;27;20622;-49
2024/01/25 11:54:17;;;;;;;7.38;3.33;;;7.70;99.90;;;;;;5075197;28;20200;-49
2024/01/25 11:56:46;;;;;;;6.05;3.50;;;7.70;99.90;;;;;;5075460;28;20246;-49
2024/01/25 11:59:15;;;;;;;5.55;3.20;;;7.80;99.90;;;;;;5070080;28;20196;-47
2024/01/25 12:01:43;;;;;;;7.30;3.80;;;7.70;99.90;;;;;;5075952;28;20227;-48
2024/01/25 12:04:12;;;;;;;6.97;3.47;;;7.70;99.90;;;;;;5085446;28;20195;-48
2024/01/25 12:06:41;;;;;;;11.05;4.35;;;7.70;99.90;;;;;;5082094;28;20226;-48
2024/01/25 12:09:12;;;;;;;6.32;3.30;;;7.80;99.90;;;;;;5085766;28;20681;-50
2024/01/25 12:11:42;;;;;;;6.13;3.20;;;7.70;99.90;;;;;;5073752;28;20250;-49
2024/01/25 12:14:11;;;;;;;6.72;3.65;;;7.70;99.90;;;;;;5075146;28;20274;-50
2024/01/25 12:16:40;;;;;;;6.35;3.50;;;7.70;99.90;;;;;;5080404;28;20231;-49
2024/01/25 12:19:09;;;;;;;4.78;3.38;;;7.70;99.90;;;;;;5082038;28;20198;-52
2024/01/25 12:21:38;;;;;;;7.03;3.25;;;7.70;99.90;;;;;;5069633;28;20227;-49
2024/01/25 12:24:09;;;;;;;5.55;2.70;;;7.70;99.90;;;;;;5074509;28;20205;-52
2024/01/25 12:26:38;;;;;;;5.80;3.53;;;7.70;99.90;;;;;;5071722;28;20243;-48
2024/01/25 12:29:08;;;;;;;6.63;3.33;;;7.70;99.90;;;;;;5075178;28;20207;-49
2024/01/25 12:31:36;;;;;;;10.70;4.97;;;7.70;99.90;;;;;;5075867;27;20234;-49
2024/01/25 12:34:13;;;;;;;5.35;4.25;;;7.70;99.90;;;;;;5086231;28;20245;-48
2024/01/25 12:36:42;;;;;;;8.57;3.63;;;7.70;99.90;;;;;;5078929;28;20271;-49
2024/01/25 12:39:13;;;;;;;6.63;3.13;;;7.70;99.90;;;;;;5068445;28;20189;-48
2024/01/25 12:41:48;;;;;;;6.70;4.00;;;7.70;99.90;;;;;;5078298;28;20229;-50
2024/01/25 12:44:18;;;;;;;5.63;3.40;;;7.70;99.90;;;;;;5082418;28;20542;-48
2024/01/25 12:46:46;;;;;;;8.80;3.60;;;7.70;99.90;;;;;;5067511;28;20303;-47
2024/01/25 12:49:14;;;;;;;5.78;3.42;;;7.70;99.90;;;;;;5074684;28;20288;-48
2024/01/25 12:51:44;;;;;;;6.32;3.30;;;7.70;99.90;;;;;;5070800;28;20526;-47
2024/01/25 12:54:12;;;;;;;5.53;3.30;;;7.70;99.90;;;;;;5074589;28;20212;-48
2024/01/25 12:56:41;;;;;;;8.35;2.97;;;7.70;99.90;;;;;;5076888;27;20224;-50
2024/01/25 12:59:11;;;;;;;5.05;3.85;;;7.70;99.90;;;;;;5083206;28;20198;-52
2024/01/25 13:01:39;;;;;;;7.80;3.90;;;7.80;99.90;;;;;;5069481;28;20329;-48
2024/01/25 13:04:08;;;;;;;6.35;3.08;;;7.70;99.90;;;;;;5059952;28;20227;-47